KSHN/SHN METAR and TAF weather

Enter ICAO airport designator
Station Type Date Time Source
KSHN METAR 2022/01/29 10:53 UTC NOAA

KSHN 291053Z AUTO 00000KT 10SM CLR M03/M04 A3023 RMK AO2 SLP241 I1000 T10331039


Station Type Date Time Source
KSHN Decoded METAR 2022/01/29 10:53 UTC NOAA

SHELTON SANDERSON FIELD, WA, United States (KSHN) 47-14N 123-08W 82M
Jan 29, 2022 - 05:53 AM EST / 2022.01.29 1053 UTC
Wind: Calm:0
Visibility: 10 mile(s):0
Sky conditions: clear
Temperature: 26.1 F (-3.3 C)
Dew Point: 25.0 F (-3.9 C)
Relative Humidity: 95%
Pressure (altimeter): 30.23 in. Hg (1023 hPa)
ob: KSHN 291053Z AUTO 00000KT 10SM CLR M03/M04 A3023 RMK AO2 SLP241 I1000 T10331039
cycle: 11

Station Type Date Time Source
KSHN TAF UTC NOAA

Error!

Example: see airport list